createdAt,value
2022-08-27T00:00:00.991Z,88.93
2022-08-27T00:00:11.520Z,88.93
2022-08-27T00:00:22.077Z,88.83
2022-08-27T00:00:32.572Z,88.83
2022-08-27T00:00:43.092Z,88.83
2022-08-27T00:00:53.616Z,88.93
2022-08-27T00:01:04.136Z,88.93
2022-08-27T00:01:14.667Z,88.83
2022-08-27T00:01:25.191Z,88.83
2022-08-27T00:01:35.766Z,88.83
2022-08-27T00:01:46.287Z,88.83
2022-08-27T00:01:56.845Z,88.83
2022-08-27T00:02:07.347Z,88.83
2022-08-27T00:02:17.879Z,88.83
2022-08-27T00:02:28.386Z,88.83
2022-08-27T00:02:38.858Z,88.83
2022-08-27T00:02:49.380Z,88.73
2022-08-27T00:02:59.907Z,88.73
2022-08-27T00:03:10.449Z,88.73
2022-08-27T00:03:20.962Z,88.73
2022-08-27T00:03:31.488Z,88.73
2022-08-27T00:03:42.009Z,88.73
2022-08-27T00:03:52.577Z,88.73
2022-08-27T00:04:03.121Z,88.83
2022-08-27T00:04:13.618Z,88.83
2022-08-27T00:04:24.184Z,88.83
2022-08-27T00:04:34.699Z,88.83
2022-08-27T00:04:45.145Z,88.83
2022-08-27T00:04:55.677Z,88.73
2022-08-27T00:05:06.197Z,88.73
2022-08-27T00:05:16.733Z,88.73
2022-08-27T00:05:27.247Z,88.73
2022-08-27T00:05:37.774Z,88.73
2022-08-27T00:05:48.953Z,88.83
2022-08-27T00:05:58.821Z,88.73
2022-08-27T00:06:09.345Z,88.73
2022-08-27T00:06:19.869Z,88.73
2022-08-27T00:06:30.422Z,88.73
2022-08-27T00:06:40.920Z,88.73
2022-08-27T00:06:51.450Z,88.63
2022-08-27T00:07:01.971Z,88.73
2022-08-27T00:07:12.517Z,88.73
2022-08-27T00:07:23.029Z,88.77
2022-08-27T00:07:33.544Z,88.63
2022-08-27T00:07:44.070Z,88.73
2022-08-27T00:07:54.600Z,88.87
2022-08-27T00:08:05.123Z,88.87
2022-08-27T00:08:15.648Z,88.77
2022-08-27T00:08:26.174Z,88.77
2022-08-27T00:08:36.699Z,88.77
2022-08-27T00:08:47.221Z,88.87
2022-08-27T00:08:57.746Z,88.87
2022-08-27T00:09:08.281Z,88.97
2022-08-27T00:09:26.557Z,88.97
2022-08-27T00:09:30.321Z,89.07
2022-08-27T00:09:39.849Z,88.97
2022-08-27T00:09:50.370Z,89.07
2022-08-27T00:10:00.900Z,89.17
2022-08-27T00:10:11.420Z,89.17
2022-08-27T00:10:21.940Z,89.17
2022-08-27T00:10:32.473Z,89.17
2022-08-27T00:10:42.989Z,89.07
2022-08-27T00:10:53.528Z,89.07
2022-08-27T00:11:04.040Z,89.17
2022-08-27T00:11:14.567Z,89.07
2022-08-27T00:11:25.106Z,89.27
2022-08-27T00:11:35.609Z,89.27
2022-08-27T00:11:46.134Z,89.17
2022-08-27T00:11:56.660Z,89.07
2022-08-27T00:12:07.200Z,89.17
2022-08-27T00:12:17.717Z,89.27
2022-08-27T00:12:28.228Z,89.17
2022-08-27T00:12:38.754Z,89.17
2022-08-27T00:12:49.281Z,89.17
2022-08-27T00:12:59.810Z,89.27
2022-08-27T00:13:10.329Z,89.17
2022-08-27T00:13:20.871Z,89.17
2022-08-27T00:13:31.374Z,89.27
2022-08-27T00:13:41.912Z,89.37
2022-08-27T00:13:52.442Z,89.37
2022-08-27T00:14:02.954Z,89.37
2022-08-27T00:14:13.523Z,89.47
2022-08-27T00:14:24.010Z,89.47
2022-08-27T00:14:34.527Z,89.47
2022-08-27T00:14:45.185Z,89.37
2022-08-27T00:14:55.572Z,89.37
2022-08-27T00:15:06.101Z,89.37
2022-08-27T00:15:17.867Z,89.37
2022-08-27T00:15:27.145Z,89.47
2022-08-27T00:15:37.667Z,89.51
2022-08-27T00:15:48.189Z,89.62
2022-08-27T00:15:58.713Z,89.58
2022-08-27T00:16:09.316Z,89.62
2022-08-27T00:16:19.800Z,89.62
2022-08-27T00:16:30.345Z,89.62
2022-08-27T00:16:40.869Z,89.72
2022-08-27T00:16:51.394Z,89.72
2022-08-27T00:17:01.871Z,89.72
2022-08-27T00:17:12.416Z,89.72
2022-08-27T00:17:22.911Z,89.72
2022-08-27T00:17:33.434Z,89.72
2022-08-27T00:17:43.958Z,89.72
2022-08-27T00:17:54.485Z,89.82
2022-08-27T00:18:05.008Z,89.82
2022-08-27T00:18:17.040Z,89.82
2022-08-27T00:18:26.057Z,89.82
2022-08-27T00:18:36.577Z,89.82
2022-08-27T00:18:48.203Z,89.82
2022-08-27T00:18:57.625Z,89.82
2022-08-27T00:19:08.148Z,89.82
2022-08-27T00:19:18.671Z,89.82
2022-08-27T00:19:29.199Z,89.82
2022-08-27T00:19:39.729Z,89.72
2022-08-27T00:19:50.242Z,89.82
2022-08-27T00:20:00.764Z,89.82
2022-08-27T00:20:11.320Z,89.92
2022-08-27T00:20:21.809Z,89.82
2022-08-27T00:20:32.338Z,89.72
2022-08-27T00:20:42.891Z,89.72
2022-08-27T00:20:53.383Z,89.72
2022-08-27T00:21:03.907Z,89.72
2022-08-27T00:21:14.457Z,89.72
2022-08-27T00:21:24.955Z,89.72
2022-08-27T00:21:35.473Z,89.82
2022-08-27T00:21:46.006Z,89.82
2022-08-27T00:21:56.525Z,89.82
2022-08-27T00:22:07.050Z,89.92
2022-08-27T00:22:17.577Z,89.82
2022-08-27T00:22:28.104Z,89.82
2022-08-27T00:22:38.632Z,89.82
2022-08-27T00:22:49.156Z,89.82
2022-08-27T00:22:59.679Z,89.82
2022-08-27T00:23:10.198Z,89.92
2022-08-27T00:23:20.731Z,89.92
2022-08-27T00:23:31.244Z,89.92
2022-08-27T00:23:41.783Z,90.02
2022-08-27T00:23:52.295Z,90.02
2022-08-27T00:24:02.819Z,90.02
2022-08-27T00:24:13.341Z,90.02
2022-08-27T00:24:23.867Z,90.02
2022-08-27T00:24:34.391Z,90.02
2022-08-27T00:24:48.718Z,90.02
2022-08-27T00:24:55.437Z,90.02
2022-08-27T00:25:05.963Z,90.02
2022-08-27T00:25:16.483Z,90.02
2022-08-27T00:25:27.003Z,90.02
2022-08-27T00:25:37.527Z,90.02
2022-08-27T00:25:48.050Z,90.12
2022-08-27T00:25:58.573Z,90.02
2022-08-27T00:26:09.133Z,90.02
2022-08-27T00:26:19.627Z,90.02
2022-08-27T00:26:30.144Z,89.92
2022-08-27T00:26:43.294Z,89.92
2022-08-27T00:26:51.194Z,89.82
2022-08-27T00:27:01.717Z,89.92
2022-08-27T00:27:12.239Z,89.92
2022-08-27T00:27:22.760Z,89.92
2022-08-27T00:27:33.287Z,89.92
2022-08-27T00:27:43.810Z,89.82
2022-08-27T00:27:54.331Z,89.82
2022-08-27T00:28:04.855Z,89.82
2022-08-27T00:28:15.378Z,89.82
2022-08-27T00:28:25.900Z,89.72
2022-08-27T00:28:36.423Z,89.62
2022-08-27T00:28:46.947Z,89.72
2022-08-27T00:28:57.478Z,89.67
2022-08-27T00:29:07.996Z,89.62
2022-08-27T00:29:18.516Z,89.62
2022-08-27T00:29:29.864Z,89.62
2022-08-27T00:29:39.571Z,89.58
2022-08-27T00:29:50.114Z,89.62
2022-08-27T00:30:00.615Z,89.62
2022-08-27T00:30:11.137Z,89.62
2022-08-27T00:30:21.669Z,89.58
2022-08-27T00:30:32.189Z,89.62
2022-08-27T00:30:42.718Z,89.58
2022-08-27T00:30:53.242Z,89.62
2022-08-27T00:31:03.757Z,89.62
2022-08-27T00:31:14.305Z,89.62
2022-08-27T00:31:27.530Z,89.62
2022-08-27T00:31:35.388Z,89.62
2022-08-27T00:31:45.988Z,89.58
2022-08-27T00:31:57.512Z,89.62
2022-08-27T00:32:06.949Z,89.72
2022-08-27T00:32:17.424Z,89.72
2022-08-27T00:32:27.951Z,89.72
2022-08-27T00:32:38.476Z,89.62
2022-08-27T00:32:48.993Z,89.62
2022-08-27T00:32:59.520Z,89.62
2022-08-27T00:33:10.045Z,89.62
2022-08-27T00:33:20.570Z,89.67
2022-08-27T00:33:31.099Z,89.72
2022-08-27T00:33:41.618Z,89.62
2022-08-27T00:33:52.141Z,89.62
2022-08-27T00:34:02.669Z,89.62
2022-08-27T00:34:13.343Z,89.62
2022-08-27T00:34:23.726Z,89.62
2022-08-27T00:34:34.235Z,89.62
2022-08-27T00:34:44.786Z,89.62
2022-08-27T00:34:55.320Z,89.62
2022-08-27T00:35:05.809Z,89.58
2022-08-27T00:35:16.337Z,89.62
2022-08-27T00:35:26.878Z,89.62
2022-08-27T00:35:37.384Z,89.62
2022-08-27T00:35:47.911Z,89.62
2022-08-27T00:35:58.433Z,89.62
2022-08-27T00:36:08.962Z,89.72
2022-08-27T00:36:19.491Z,89.67
2022-08-27T00:36:30.010Z,89.58
2022-08-27T00:36:40.548Z,89.62
2022-08-27T00:36:51.054Z,89.62
2022-08-27T00:37:01.580Z,89.58
2022-08-27T00:37:12.121Z,89.58
2022-08-27T00:37:22.627Z,89.58
2022-08-27T00:37:33.162Z,89.58
2022-08-27T00:37:43.681Z,89.58
2022-08-27T00:37:54.225Z,89.58
2022-08-27T00:38:04.722Z,89.58
2022-08-27T00:38:15.252Z,89.47
2022-08-27T00:38:25.778Z,89.58
2022-08-27T00:38:36.295Z,89.58
2022-08-27T00:38:46.827Z,89.58
2022-08-27T00:38:57.344Z,89.47
2022-08-27T00:39:07.865Z,89.47
2022-08-27T00:39:18.394Z,89.58
2022-08-27T00:39:28.917Z,89.47
2022-08-27T00:39:39.473Z,89.58
2022-08-27T00:39:49.982Z,89.58
2022-08-27T00:40:00.556Z,89.58
2022-08-27T00:40:11.094Z,89.72
2022-08-27T00:40:21.617Z,89.62
2022-08-27T00:40:32.130Z,89.62
2022-08-27T00:40:42.588Z,89.58
2022-08-27T00:40:53.117Z,89.62
2022-08-27T00:41:03.641Z,89.58
2022-08-27T00:41:14.160Z,89.58
2022-08-27T00:41:24.683Z,89.58
2022-08-27T00:41:35.209Z,89.58
2022-08-27T00:41:45.729Z,89.58
2022-08-27T00:41:56.255Z,89.58
2022-08-27T00:42:06.785Z,89.47
2022-08-27T00:42:17.307Z,89.47
2022-08-27T00:42:27.863Z,89.58
2022-08-27T00:42:38.359Z,89.62
2022-08-27T00:42:48.878Z,89.62
2022-08-27T00:42:59.407Z,89.58
2022-08-27T00:43:09.931Z,89.58
2022-08-27T00:43:20.448Z,89.62
2022-08-27T00:43:30.975Z,89.58
2022-08-27T00:43:41.505Z,89.58
2022-08-27T00:43:52.022Z,89.58
2022-08-27T00:44:02.548Z,89.47
2022-08-27T00:44:13.082Z,89.47
2022-08-27T00:44:23.605Z,89.47
2022-08-27T00:44:34.127Z,89.47
2022-08-27T00:44:44.647Z,89.37
2022-08-27T00:44:55.176Z,89.37
2022-08-27T00:45:05.702Z,89.37
2022-08-27T00:45:16.219Z,89.37
2022-08-27T00:45:26.791Z,89.37
2022-08-27T00:45:37.326Z,89.27
2022-08-27T00:45:47.850Z,89.27
2022-08-27T00:45:58.340Z,89.37
2022-08-27T00:46:08.876Z,89.37
2022-08-27T00:46:19.408Z,89.27
2022-08-27T00:46:29.895Z,89.27
2022-08-27T00:46:40.426Z,89.27
2022-08-27T00:46:50.944Z,89.27
2022-08-27T00:47:01.473Z,89.37
2022-08-27T00:47:11.998Z,89.37
2022-08-27T00:47:22.519Z,89.37
2022-08-27T00:47:33.044Z,89.37
2022-08-27T00:47:43.568Z,89.37
2022-08-27T00:47:54.099Z,89.37
2022-08-27T00:48:04.616Z,89.37
2022-08-27T00:48:15.143Z,89.47
2022-08-27T00:48:25.670Z,89.47
2022-08-27T00:48:36.192Z,89.37
2022-08-27T00:48:46.714Z,89.37
2022-08-27T00:48:57.242Z,89.37
2022-08-27T00:49:07.792Z,89.47
2022-08-27T00:49:18.291Z,89.47
2022-08-27T00:49:28.811Z,89.47
2022-08-27T00:49:39.343Z,89.47
2022-08-27T00:49:49.859Z,89.47
2022-08-27T00:50:00.397Z,89.47
2022-08-27T00:50:10.908Z,89.37
2022-08-27T00:50:21.434Z,89.47
2022-08-27T00:50:31.962Z,89.58
2022-08-27T00:50:42.478Z,89.67
2022-08-27T00:50:53.015Z,89.72
2022-08-27T00:51:03.533Z,89.67
2022-08-27T00:51:14.054Z,89.78
2022-08-27T00:51:24.583Z,89.82
2022-08-27T00:51:35.122Z,89.82
2022-08-27T00:51:45.638Z,89.82
2022-08-27T00:51:56.155Z,89.82
2022-08-27T00:52:06.677Z,89.82
2022-08-27T00:52:17.198Z,89.72
2022-08-27T00:52:27.727Z,89.72
2022-08-27T00:52:38.258Z,89.72
2022-08-27T00:52:48.772Z,89.72
2022-08-27T00:52:59.299Z,89.72
2022-08-27T00:53:09.828Z,89.82
2022-08-27T00:53:20.345Z,89.82
2022-08-27T00:53:30.874Z,89.82
2022-08-27T00:53:41.392Z,89.72
2022-08-27T00:53:51.919Z,89.72
2022-08-27T00:54:02.448Z,89.67
2022-08-27T00:54:12.972Z,89.72
2022-08-27T00:54:24.491Z,89.72
2022-08-27T00:54:34.027Z,89.72
2022-08-27T00:54:44.545Z,89.67
2022-08-27T00:54:55.075Z,89.67
2022-08-27T00:55:05.605Z,89.67
2022-08-27T00:55:16.119Z,89.67
2022-08-27T00:55:26.650Z,89.67
2022-08-27T00:55:37.176Z,89.67
2022-08-27T00:55:47.694Z,89.58
2022-08-27T00:55:58.217Z,89.58
2022-08-27T00:56:08.743Z,89.47
2022-08-27T00:56:19.284Z,89.47
2022-08-27T00:56:29.818Z,89.47
2022-08-27T00:56:40.327Z,89.47
2022-08-27T00:56:51.893Z,89.47
2022-08-27T00:57:01.371Z,89.37
2022-08-27T00:57:11.892Z,89.47
2022-08-27T00:57:22.418Z,89.47
2022-08-27T00:57:32.947Z,89.47
2022-08-27T00:57:43.468Z,89.47
2022-08-27T00:57:53.996Z,89.47
2022-08-27T00:58:04.929Z,89.47
2022-08-27T00:58:15.097Z,89.58
2022-08-27T00:58:25.569Z,89.72
2022-08-27T00:58:36.091Z,89.72
2022-08-27T00:58:46.615Z,89.67
2022-08-27T00:58:57.136Z,89.78
2022-08-27T00:59:07.669Z,89.82
2022-08-27T00:59:18.194Z,89.78
2022-08-27T00:59:28.711Z,89.82
2022-08-27T00:59:39.235Z,89.82
2022-08-27T00:59:49.764Z,89.82
2022-08-27T01:00:00.292Z,89.82
2022-08-27T01:00:10.818Z,89.82
2022-08-27T01:00:21.334Z,89.72
2022-08-27T01:00:31.866Z,89.72
2022-08-27T01:00:42.443Z,89.72
2022-08-27T01:00:52.973Z,89.72
2022-08-27T01:01:03.504Z,89.67
2022-08-27T01:01:14.052Z,89.78
2022-08-27T01:01:24.541Z,89.78
2022-08-27T01:01:35.894Z,89.82
2022-08-27T01:01:45.578Z,89.78
2022-08-27T01:01:56.132Z,89.67
2022-08-27T01:02:06.653Z,89.67
2022-08-27T01:02:17.160Z,89.72
2022-08-27T01:02:27.698Z,89.67
2022-08-27T01:02:38.162Z,89.67
2022-08-27T01:02:48.686Z,89.67
2022-08-27T01:02:59.210Z,89.58
2022-08-27T01:03:09.726Z,89.58
2022-08-27T01:03:20.253Z,89.58
2022-08-27T01:03:30.783Z,89.58
2022-08-27T01:03:41.306Z,89.58
2022-08-27T01:03:51.826Z,89.58
2022-08-27T01:04:02.358Z,89.58
2022-08-27T01:04:12.873Z,89.47
2022-08-27T01:04:23.405Z,89.47
2022-08-27T01:04:33.925Z,89.47
2022-08-27T01:04:44.449Z,89.47
2022-08-27T01:04:54.971Z,89.47
2022-08-27T01:05:05.495Z,89.47
2022-08-27T01:05:16.043Z,89.47
2022-08-27T01:05:26.547Z,89.47
2022-08-27T01:05:37.073Z,89.47
2022-08-27T01:05:47.597Z,89.47
2022-08-27T01:05:58.119Z,89.37
2022-08-27T01:06:08.644Z,89.37
2022-08-27T01:06:19.167Z,89.37
2022-08-27T01:06:29.692Z,89.37
2022-08-27T01:06:40.247Z,89.37
2022-08-27T01:06:50.747Z,89.47
2022-08-27T01:07:01.264Z,89.47
2022-08-27T01:07:11.792Z,89.47
2022-08-27T01:07:22.309Z,89.47
2022-08-27T01:07:32.839Z,89.37
2022-08-27T01:07:43.363Z,89.27
2022-08-27T01:07:53.887Z,89.27
2022-08-27T01:08:04.413Z,89.27
2022-08-27T01:08:14.940Z,89.27
2022-08-27T01:08:25.463Z,89.27
2022-08-27T01:08:35.986Z,89.27
2022-08-27T01:08:46.510Z,89.17
2022-08-27T01:08:57.042Z,89.17
2022-08-27T01:09:07.554Z,89.17
2022-08-27T01:09:18.084Z,89.27
2022-08-27T01:09:28.604Z,89.27
2022-08-27T01:09:39.133Z,89.27
2022-08-27T01:09:50.078Z,89.37
2022-08-27T01:10:00.197Z,89.37
2022-08-27T01:10:10.728Z,89.47
2022-08-27T01:10:21.232Z,89.47
2022-08-27T01:10:31.753Z,89.47
2022-08-27T01:10:42.275Z,89.47
2022-08-27T01:10:52.799Z,89.47
2022-08-27T01:11:03.626Z,89.47
2022-08-27T01:11:13.844Z,89.58
2022-08-27T01:11:24.375Z,89.67
2022-08-27T01:11:34.894Z,89.67
2022-08-27T01:11:45.425Z,89.67
2022-08-27T01:11:55.940Z,89.67
2022-08-27T01:12:06.466Z,89.78
2022-08-27T01:12:16.987Z,89.87
2022-08-27T01:12:27.516Z,89.92
2022-08-27T01:12:38.042Z,89.92
2022-08-27T01:12:53.673Z,89.82
2022-08-27T01:13:00.091Z,89.82
2022-08-27T01:13:09.616Z,89.82
2022-08-27T01:13:20.137Z,89.82
2022-08-27T01:13:40.817Z,89.78
2022-08-27T01:13:59.028Z,89.78
2022-08-27T01:13:59.099Z,89.78
2022-08-27T01:14:03.239Z,89.78
2022-08-27T01:14:12.797Z,89.87
2022-08-27T01:14:23.285Z,89.87
2022-08-27T01:14:33.817Z,90.02
2022-08-27T01:14:44.335Z,89.98
2022-08-27T01:14:54.863Z,89.98
2022-08-27T01:15:05.390Z,90.02
2022-08-27T01:15:19.920Z,89.98
2022-08-27T01:15:26.435Z,90.08
2022-08-27T01:15:36.964Z,90.12
2022-08-27T01:15:47.491Z,90.02
2022-08-27T01:15:58.035Z,90.02
2022-08-27T01:16:08.585Z,90.12
2022-08-27T01:16:19.149Z,90.12
2022-08-27T01:16:29.718Z,90.08
2022-08-27T01:16:40.269Z,90.12
2022-08-27T01:16:50.625Z,90.12
2022-08-27T01:17:01.154Z,90.08
2022-08-27T01:17:11.676Z,89.98
2022-08-27T01:17:22.219Z,89.98
2022-08-27T01:17:32.735Z,90.02
2022-08-27T01:17:43.262Z,90.02
2022-08-27T01:17:53.779Z,89.92
2022-08-27T01:18:04.303Z,89.92
2022-08-27T01:18:14.827Z,90.02
2022-08-27T01:18:25.354Z,90.02
2022-08-27T01:18:35.873Z,89.87
2022-08-27T01:18:46.404Z,89.92
2022-08-27T01:18:56.975Z,89.92
2022-08-27T01:19:07.457Z,89.92
2022-08-27T01:19:17.977Z,90.02
2022-08-27T01:19:28.514Z,90.02
2022-08-27T01:19:39.034Z,89.98
2022-08-27T01:19:49.564Z,89.98
2022-08-27T01:20:00.086Z,90.12
2022-08-27T01:20:10.615Z,90.12
2022-08-27T01:20:21.137Z,90.08
2022-08-27T01:20:31.665Z,90.12
2022-08-27T01:20:42.207Z,90.08
2022-08-27T01:20:52.716Z,90.08
2022-08-27T01:21:03.238Z,89.98
2022-08-27T01:21:13.767Z,89.98
2022-08-27T01:21:24.286Z,89.87
2022-08-27T01:21:34.821Z,89.98
2022-08-27T01:21:45.338Z,89.98
2022-08-27T01:21:55.864Z,89.98
2022-08-27T01:22:06.399Z,90.08
2022-08-27T01:22:20.410Z,89.98
2022-08-27T01:22:28.442Z,89.87
2022-08-27T01:22:37.996Z,89.87
2022-08-27T01:22:48.487Z,89.98
2022-08-27T01:22:59.013Z,89.98
2022-08-27T01:23:09.539Z,90.22
2022-08-27T01:23:20.066Z,90.22
2022-08-27T01:23:30.588Z,90.17
2022-08-27T01:23:41.118Z,90.32
2022-08-27T01:23:51.641Z,90.32
2022-08-27T01:24:02.166Z,90.22
2022-08-27T01:24:12.687Z,90.22
2022-08-27T01:24:23.217Z,90.42
2022-08-27T01:24:33.735Z,90.42
2022-08-27T01:24:44.915Z,90.42
2022-08-27T01:24:54.784Z,90.52
2022-08-27T01:25:05.310Z,90.52
2022-08-27T01:25:15.871Z,90.52
2022-08-27T01:25:26.366Z,90.42
2022-08-27T01:25:36.890Z,90.42
2022-08-27T01:25:47.406Z,90.42
2022-08-27T01:25:57.933Z,90.42
2022-08-27T01:26:08.461Z,90.42
2022-08-27T01:26:18.981Z,90.52
2022-08-27T01:26:29.501Z,90.62
2022-08-27T01:26:40.067Z,90.62
2022-08-27T01:26:50.556Z,90.72
2022-08-27T01:27:01.077Z,90.72
2022-08-27T01:27:13.508Z,90.62
2022-08-27T01:27:22.122Z,90.72
2022-08-27T01:27:32.650Z,90.72
2022-08-27T01:27:43.166Z,90.82
2022-08-27T01:27:53.700Z,90.82
2022-08-27T01:28:04.227Z,90.82
2022-08-27T01:28:14.743Z,90.92
2022-08-27T01:28:29.251Z,90.92
2022-08-27T01:28:37.719Z,90.92
2022-08-27T01:28:46.320Z,90.92
2022-08-27T01:28:56.838Z,90.92
2022-08-27T01:29:07.374Z,91.02
2022-08-27T01:29:17.896Z,91.02
2022-08-27T01:29:28.419Z,91.02
2022-08-27T01:29:38.943Z,91.02
2022-08-27T01:29:49.470Z,91.13
2022-08-27T01:29:59.999Z,91.13
2022-08-27T01:30:10.520Z,91.13
2022-08-27T01:30:21.037Z,91.13
2022-08-27T01:30:31.579Z,91.13
2022-08-27T01:30:42.096Z,91.13
2022-08-27T01:30:52.623Z,91.13
2022-08-27T01:31:03.245Z,91.13
2022-08-27T01:31:13.717Z,91.13
2022-08-27T01:31:24.222Z,91.22
2022-08-27T01:31:34.744Z,91.13
2022-08-27T01:31:45.347Z,91.13
2022-08-27T01:31:55.799Z,91.13
2022-08-27T01:32:06.284Z,91.13
2022-08-27T01:32:16.848Z,91.13
2022-08-27T01:32:27.331Z,91.22
2022-08-27T01:32:37.857Z,91.22
2022-08-27T01:32:48.383Z,91.32
2022-08-27T01:32:58.910Z,91.47
2022-08-27T01:33:09.432Z,91.57
2022-08-27T01:33:19.955Z,91.67
2022-08-27T01:33:30.477Z,91.67
2022-08-27T01:33:41.005Z,91.67
2022-08-27T01:33:51.532Z,91.67
2022-08-27T01:34:02.050Z,91.67
2022-08-27T01:34:12.574Z,91.63
2022-08-27T01:34:23.106Z,91.67
2022-08-27T01:34:34.288Z,91.77
2022-08-27T01:34:44.175Z,91.87
2022-08-27T01:34:54.693Z,91.87
2022-08-27T01:35:05.202Z,91.87
2022-08-27T01:35:15.725Z,91.97
2022-08-27T01:35:26.264Z,91.97
2022-08-27T01:35:36.774Z,91.97
2022-08-27T01:35:47.305Z,91.87
2022-08-27T01:35:57.824Z,91.97
2022-08-27T01:36:08.369Z,91.97
2022-08-27T01:36:18.876Z,91.97
2022-08-27T01:36:29.399Z,91.87
2022-08-27T01:36:39.946Z,91.97
2022-08-27T01:36:50.452Z,91.97
2022-08-27T01:37:01.975Z,92.07
2022-08-27T01:37:11.515Z,91.97
2022-08-27T01:37:23.734Z,92.07
2022-08-27T01:37:32.554Z,92.07
2022-08-27T01:37:43.081Z,92.17
2022-08-27T01:37:53.612Z,92.17
2022-08-27T01:38:04.122Z,92.17
2022-08-27T01:38:30.057Z,92.27
2022-08-27T01:38:30.378Z,92.17
2022-08-27T01:38:36.700Z,92.27
2022-08-27T01:38:46.221Z,92.27
2022-08-27T01:38:57.517Z,92.27
2022-08-27T01:39:07.271Z,92.27
2022-08-27T01:39:17.804Z,92.27
2022-08-27T01:39:28.322Z,92.17
2022-08-27T01:39:38.869Z,92.17
2022-08-27T01:39:49.488Z,92.27
2022-08-27T01:39:59.953Z,92.37
2022-08-27T01:40:10.477Z,92.47
2022-08-27T01:40:21.006Z,92.47
2022-08-27T01:40:31.634Z,92.47
2022-08-27T01:40:41.988Z,92.47
2022-08-27T01:40:52.543Z,92.37
2022-08-27T01:41:03.040Z,92.27
2022-08-27T01:41:13.562Z,92.27
2022-08-27T01:41:24.087Z,92.37
2022-08-27T01:41:34.618Z,92.27
2022-08-27T01:41:45.135Z,92.27
2022-08-27T01:41:55.651Z,92.27
2022-08-27T01:42:06.176Z,92.27
2022-08-27T01:42:16.701Z,92.27
2022-08-27T01:42:27.220Z,92.27
2022-08-27T01:42:37.740Z,92.17
2022-08-27T01:42:48.275Z,92.17
2022-08-27T01:42:58.794Z,92.27
2022-08-27T01:43:09.323Z,92.27
2022-08-27T01:43:19.842Z,92.17
2022-08-27T01:43:30.368Z,92.17
2022-08-27T01:43:40.886Z,92.27
2022-08-27T01:43:51.411Z,92.27
2022-08-27T01:44:01.931Z,92.37
2022-08-27T01:44:12.452Z,92.37
2022-08-27T01:44:22.980Z,92.37
2022-08-27T01:44:33.505Z,92.37
2022-08-27T01:44:44.027Z,92.47
2022-08-27T01:44:54.591Z,92.47
2022-08-27T01:45:05.733Z,92.47
2022-08-27T01:45:15.593Z,92.47
2022-08-27T01:45:26.114Z,92.47
2022-08-27T01:45:36.641Z,92.57
2022-08-27T01:45:47.163Z,92.57
2022-08-27T01:45:57.691Z,92.57
2022-08-27T01:46:08.224Z,92.68
2022-08-27T01:46:18.754Z,92.68
2022-08-27T01:46:29.307Z,92.68
2022-08-27T01:46:39.853Z,92.68
2022-08-27T01:46:50.357Z,92.57
2022-08-27T01:47:00.933Z,92.47
2022-08-27T01:47:11.348Z,92.47
2022-08-27T01:47:21.881Z,92.57
2022-08-27T01:47:32.405Z,92.68
2022-08-27T01:47:42.935Z,92.68
2022-08-27T01:47:53.443Z,92.68
2022-08-27T01:48:04.105Z,92.57
2022-08-27T01:48:14.498Z,92.47
2022-08-27T01:48:25.017Z,92.57
2022-08-27T01:48:35.540Z,92.57
2022-08-27T01:48:46.057Z,92.57
2022-08-27T01:48:56.585Z,92.47
2022-08-27T01:49:07.110Z,92.47
2022-08-27T01:49:17.633Z,92.57
2022-08-27T01:49:28.158Z,92.57
2022-08-27T01:49:38.716Z,92.57
2022-08-27T01:49:49.218Z,92.57
2022-08-27T01:49:59.735Z,92.57
2022-08-27T01:50:10.243Z,92.57
2022-08-27T01:50:20.795Z,92.57
2022-08-27T01:50:31.293Z,92.57
2022-08-27T01:50:41.820Z,92.57
2022-08-27T01:50:52.343Z,92.57
2022-08-27T01:51:02.862Z,92.68
2022-08-27T01:51:13.386Z,92.68
2022-08-27T01:51:23.909Z,92.77
2022-08-27T01:51:34.435Z,92.77
2022-08-27T01:51:44.952Z,92.77
2022-08-27T01:51:55.478Z,92.77
2022-08-27T01:52:06.007Z,92.88
2022-08-27T01:52:16.527Z,92.88
2022-08-27T01:52:27.042Z,92.88
2022-08-27T01:52:37.568Z,92.77
2022-08-27T01:52:48.096Z,92.77
2022-08-27T01:52:58.624Z,92.77
2022-08-27T01:53:09.135Z,92.68
2022-08-27T01:53:19.660Z,92.77
2022-08-27T01:53:30.189Z,92.77
2022-08-27T01:53:40.711Z,92.77
2022-08-27T01:53:51.232Z,92.77
2022-08-27T01:54:01.765Z,92.77
2022-08-27T01:54:12.303Z,92.77
2022-08-27T01:54:22.806Z,92.77
2022-08-27T01:54:33.330Z,92.77
2022-08-27T01:54:43.853Z,92.88
2022-08-27T01:54:54.373Z,92.97
2022-08-27T01:55:04.902Z,93.08
2022-08-27T01:55:15.456Z,93.08
2022-08-27T01:55:25.945Z,93.08
2022-08-27T01:55:36.467Z,93.18
2022-08-27T01:55:47.684Z,93.18
2022-08-27T01:55:57.520Z,93.28
2022-08-27T01:56:08.061Z,93.28
2022-08-27T01:56:18.572Z,93.38
2022-08-27T01:56:29.094Z,93.38
2022-08-27T01:56:39.625Z,93.48
2022-08-27T01:56:50.142Z,93.48
2022-08-27T01:57:00.675Z,93.52
2022-08-27T01:57:11.196Z,93.38
2022-08-27T01:57:25.708Z,93.48
2022-08-27T01:57:32.249Z,93.48
2022-08-27T01:57:42.772Z,93.48
2022-08-27T01:57:53.309Z,93.48
2022-08-27T01:58:03.847Z,93.48
2022-08-27T01:58:14.354Z,93.62
2022-08-27T01:58:24.876Z,93.73
2022-08-27T01:58:35.407Z,93.68
2022-08-27T01:58:45.925Z,93.62
2022-08-27T01:58:56.462Z,93.62
2022-08-27T01:59:07.018Z,93.58
2022-08-27T01:59:17.513Z,93.62
2022-08-27T01:59:39.362Z,93.62
2022-08-27T01:59:40.141Z,93.62
2022-08-27T01:59:49.080Z,93.73
2022-08-27T01:59:59.603Z,93.73
2022-08-27T02:00:10.153Z,93.68
2022-08-27T02:00:20.654Z,93.68
2022-08-27T02:00:31.274Z,93.58
2022-08-27T02:00:41.745Z,93.68
2022-08-27T02:00:56.212Z,93.78
2022-08-27T02:01:02.932Z,93.78
2022-08-27T02:01:13.354Z,93.68
2022-08-27T02:01:23.900Z,93.78
2022-08-27T02:01:34.330Z,93.82
2022-08-27T02:01:44.915Z,93.93
2022-08-27T02:01:55.482Z,94.02
2022-08-27T02:02:06.000Z,94.02
2022-08-27T02:02:16.546Z,94.02
2022-08-27T02:02:27.043Z,94.02
2022-08-27T02:02:37.487Z,94.02
2022-08-27T02:02:48.019Z,94.02
2022-08-27T02:02:58.534Z,94.02
2022-08-27T02:03:09.060Z,94.02
2022-08-27T02:03:19.594Z,93.93
2022-08-27T02:03:30.118Z,93.88
2022-08-27T02:03:40.659Z,94.13
2022-08-27T02:03:51.166Z,94.08
2022-08-27T02:04:01.688Z,94.02
2022-08-27T02:04:12.214Z,93.98
2022-08-27T02:04:22.739Z,94.02
2022-08-27T02:04:33.270Z,94.02
2022-08-27T02:04:43.806Z,93.98
2022-08-27T02:04:54.315Z,93.98
2022-08-27T02:05:04.843Z,93.98
2022-08-27T02:05:15.368Z,93.88
2022-08-27T02:05:25.918Z,93.88
2022-08-27T02:05:44.609Z,93.88
2022-08-27T02:05:47.939Z,93.88
2022-08-27T02:05:57.470Z,93.88
2022-08-27T02:06:08.002Z,93.88
2022-08-27T02:06:18.519Z,93.78
2022-08-27T02:06:29.045Z,93.78
2022-08-27T02:06:39.573Z,93.78
2022-08-27T02:06:50.100Z,93.78
2022-08-27T02:07:00.615Z,93.78
2022-08-27T02:07:11.139Z,93.82
2022-08-27T02:07:21.671Z,93.78
2022-08-27T02:07:32.243Z,93.82
2022-08-27T02:07:42.716Z,93.78
2022-08-27T02:07:53.240Z,93.73
2022-08-27T02:08:03.833Z,93.78
2022-08-27T02:08:14.286Z,93.93
2022-08-27T02:08:24.817Z,93.88
2022-08-27T02:08:35.333Z,93.93
2022-08-27T02:08:45.897Z,94.02
2022-08-27T02:08:56.400Z,94.02
2022-08-27T02:09:06.911Z,94.02
2022-08-27T02:09:17.436Z,94.13
2022-08-27T02:09:27.961Z,94.13
2022-08-27T02:09:38.493Z,94.13
2022-08-27T02:09:49.013Z,94.13
2022-08-27T02:09:59.534Z,94.13
2022-08-27T02:10:10.058Z,94.23
2022-08-27T02:10:20.582Z,94.23
2022-08-27T02:10:31.107Z,94.23
2022-08-27T02:10:41.636Z,94.23
2022-08-27T02:10:52.158Z,94.23
2022-08-27T02:11:02.685Z,94.23
2022-08-27T02:11:13.208Z,94.33
2022-08-27T02:11:23.730Z,94.43
2022-08-27T02:11:34.261Z,94.43
2022-08-27T02:11:45.780Z,94.43
2022-08-27T02:11:55.303Z,94.53
2022-08-27T02:12:05.827Z,94.53
2022-08-27T02:12:16.355Z,94.53
2022-08-27T02:12:26.875Z,94.53
2022-08-27T02:12:37.402Z,94.63
2022-08-27T02:12:47.928Z,94.63
2022-08-27T02:12:58.454Z,94.63
2022-08-27T02:13:08.981Z,94.63
2022-08-27T02:13:19.568Z,94.63
2022-08-27T02:13:30.031Z,94.63
2022-08-27T02:13:40.552Z,94.63
2022-08-27T02:13:51.072Z,94.63
2022-08-27T02:14:01.592Z,94.63
2022-08-27T02:14:13.556Z,94.63
2022-08-27T02:14:22.655Z,94.53
2022-08-27T02:14:33.176Z,94.53
2022-08-27T02:14:43.696Z,94.53
2022-08-27T02:14:54.225Z,94.53
2022-08-27T02:15:04.748Z,94.63
2022-08-27T02:15:15.277Z,94.63
2022-08-27T02:15:25.797Z,94.63